sensor_id;sensor_type;location;lat;lon;timestamp;P1;durP1;ratioP1;P2;durP2;ratioP2
69588;SDS011;56792;50.644;17.984;2023-12-14T00:00:46;53.30;;;26.10;;
69588;SDS011;56792;50.644;17.984;2023-12-14T00:03:18;60.90;;;27.00;;
69588;SDS011;56792;50.644;17.984;2023-12-14T00:05:49;59.90;;;26.20;;
69588;SDS011;56792;50.644;17.984;2023-12-14T00:08:20;57.40;;;26.90;;
69588;SDS011;56792;50.644;17.984;2023-12-14T00:10:51;58.30;;;26.30;;
69588;SDS011;56792;50.644;17.984;2023-12-14T00:13:22;60.70;;;26.50;;
69588;SDS011;56792;50.644;17.984;2023-12-14T00:15:53;63.30;;;28.90;;
69588;SDS011;56792;50.644;17.984;2023-12-14T00:18:23;58.70;;;27.70;;
69588;SDS011;56792;50.644;17.984;2023-12-14T00:20:55;57.70;;;26.70;;
69588;SDS011;56792;50.644;17.984;2023-12-14T00:23:26;60.40;;;25.80;;
69588;SDS011;56792;50.644;17.984;2023-12-14T00:25:57;68.30;;;32.40;;
69588;SDS011;56792;50.644;17.984;2023-12-14T00:28:28;70.90;;;32.00;;
69588;SDS011;56792;50.644;17.984;2023-12-14T00:30:59;64.90;;;29.90;;
69588;SDS011;56792;50.644;17.984;2023-12-14T00:33:30;67.80;;;28.50;;
69588;SDS011;56792;50.644;17.984;2023-12-14T00:36:01;59.00;;;27.60;;
69588;SDS011;56792;50.644;17.984;2023-12-14T00:38:32;58.10;;;27.70;;
69588;SDS011;56792;50.644;17.984;2023-12-14T00:41:04;68.20;;;28.30;;
69588;SDS011;56792;50.644;17.984;2023-12-14T00:43:35;65.20;;;28.20;;
69588;SDS011;56792;50.644;17.984;2023-12-14T00:46:06;58.60;;;27.70;;
69588;SDS011;56792;50.644;17.984;2023-12-14T00:48:39;59.10;;;26.80;;
69588;SDS011;56792;50.644;17.984;2023-12-14T00:51:10;63.80;;;27.80;;
69588;SDS011;56792;50.644;17.984;2023-12-14T00:53:41;57.20;;;24.90;;
69588;SDS011;56792;50.644;17.984;2023-12-14T00:56:12;53.50;;;24.50;;
69588;SDS011;56792;50.644;17.984;2023-12-14T00:58:43;57.90;;;25.90;;
69588;SDS011;56792;50.644;17.984;2023-12-14T01:01:14;55.90;;;26.20;;
69588;SDS011;56792;50.644;17.984;2023-12-14T01:03:45;55.50;;;25.30;;
69588;SDS011;56792;50.644;17.984;2023-12-14T01:06:16;55.50;;;25.20;;
69588;SDS011;56792;50.644;17.984;2023-12-14T01:08:47;55.50;;;27.00;;
69588;SDS011;56792;50.644;17.984;2023-12-14T01:11:18;59.60;;;25.80;;
69588;SDS011;56792;50.644;17.984;2023-12-14T01:13:49;51.70;;;23.40;;
69588;SDS011;56792;50.644;17.984;2023-12-14T01:16:20;68.00;;;32.10;;
69588;SDS011;56792;50.644;17.984;2023-12-14T01:18:51;88.80;;;41.80;;
69588;SDS011;56792;50.644;17.984;2023-12-14T01:21:22;84.30;;;40.00;;
69588;SDS011;56792;50.644;17.984;2023-12-14T01:23:53;115.20;;;62.40;;
69588;SDS011;56792;50.644;17.984;2023-12-14T01:26:24;81.70;;;42.00;;
69588;SDS011;56792;50.644;17.984;2023-12-14T01:28:55;64.20;;;27.70;;
69588;SDS011;56792;50.644;17.984;2023-12-14T01:31:27;52.40;;;24.00;;
69588;SDS011;56792;50.644;17.984;2023-12-14T01:33:58;58.00;;;25.00;;
69588;SDS011;56792;50.644;17.984;2023-12-14T01:36:29;61.40;;;28.90;;
69588;SDS011;56792;50.644;17.984;2023-12-14T01:39:00;61.30;;;25.70;;
69588;SDS011;56792;50.644;17.984;2023-12-14T01:41:31;60.10;;;26.70;;
69588;SDS011;56792;50.644;17.984;2023-12-14T01:44:02;52.20;;;21.90;;
69588;SDS011;56792;50.644;17.984;2023-12-14T01:46:33;55.10;;;24.40;;
69588;SDS011;56792;50.644;17.984;2023-12-14T01:49:04;59.90;;;25.20;;
69588;SDS011;56792;50.644;17.984;2023-12-14T01:51:35;51.50;;;24.50;;
69588;SDS011;56792;50.644;17.984;2023-12-14T01:54:06;56.70;;;25.40;;
69588;SDS011;56792;50.644;17.984;2023-12-14T01:56:37;56.00;;;24.20;;
69588;SDS011;56792;50.644;17.984;2023-12-14T01:59:09;49.30;;;22.60;;
69588;SDS011;56792;50.644;17.984;2023-12-14T02:01:43;55.20;;;24.90;;
69588;SDS011;56792;50.644;17.984;2023-12-14T02:04:15;55.60;;;24.50;;
69588;SDS011;56792;50.644;17.984;2023-12-14T02:06:46;52.40;;;24.30;;
69588;SDS011;56792;50.644;17.984;2023-12-14T02:09:17;56.70;;;24.40;;
69588;SDS011;56792;50.644;17.984;2023-12-14T02:11:48;56.50;;;23.70;;
69588;SDS011;56792;50.644;17.984;2023-12-14T02:14:22;54.10;;;24.90;;
69588;SDS011;56792;50.644;17.984;2023-12-14T02:16:53;53.30;;;22.70;;
69588;SDS011;56792;50.644;17.984;2023-12-14T02:19:24;53.20;;;23.70;;
69588;SDS011;56792;50.644;17.984;2023-12-14T02:21:55;54.20;;;23.10;;
69588;SDS011;56792;50.644;17.984;2023-12-14T02:24:26;52.40;;;24.10;;
69588;SDS011;56792;50.644;17.984;2023-12-14T02:26:58;58.40;;;24.20;;
69588;SDS011;56792;50.644;17.984;2023-12-14T02:29:29;52.40;;;23.20;;
69588;SDS011;56792;50.644;17.984;2023-12-14T02:32:00;54.80;;;24.70;;
69588;SDS011;56792;50.644;17.984;2023-12-14T02:34:31;49.80;;;23.10;;
69588;SDS011;56792;50.644;17.984;2023-12-14T02:37:02;49.50;;;22.80;;
69588;SDS011;56792;50.644;17.984;2023-12-14T02:39:34;52.50;;;23.30;;
69588;SDS011;56792;50.644;17.984;2023-12-14T02:42:05;55.00;;;23.20;;
69588;SDS011;56792;50.644;17.984;2023-12-14T02:44:36;54.00;;;25.10;;
69588;SDS011;56792;50.644;17.984;2023-12-14T02:47:07;65.10;;;30.00;;
69588;SDS011;56792;50.644;17.984;2023-12-14T02:49:38;60.90;;;27.10;;
69588;SDS011;56792;50.644;17.984;2023-12-14T02:52:09;62.60;;;31.20;;
69588;SDS011;56792;50.644;17.984;2023-12-14T02:54:40;61.00;;;29.70;;
69588;SDS011;56792;50.644;17.984;2023-12-14T02:57:11;51.30;;;24.00;;
69588;SDS011;56792;50.644;17.984;2023-12-14T02:59:43;55.60;;;24.00;;
69588;SDS011;56792;50.644;17.984;2023-12-14T03:02:14;48.50;;;22.60;;
69588;SDS011;56792;50.644;17.984;2023-12-14T03:04:45;55.20;;;23.90;;
69588;SDS011;56792;50.644;17.984;2023-12-14T03:07:16;59.00;;;27.00;;
69588;SDS011;56792;50.644;17.984;2023-12-14T03:09:47;51.00;;;25.40;;
69588;SDS011;56792;50.644;17.984;2023-12-14T03:12:18;47.60;;;22.10;;
69588;SDS011;56792;50.644;17.984;2023-12-14T03:14:49;45.20;;;21.90;;
69588;SDS011;56792;50.644;17.984;2023-12-14T03:17:20;46.60;;;20.30;;
69588;SDS011;56792;50.644;17.984;2023-12-14T03:19:51;47.10;;;21.00;;
69588;SDS011;56792;50.644;17.984;2023-12-14T03:22:22;49.70;;;22.50;;
69588;SDS011;56792;50.644;17.984;2023-12-14T03:24:53;45.20;;;22.20;;
69588;SDS011;56792;50.644;17.984;2023-12-14T03:27:24;46.70;;;19.40;;
69588;SDS011;56792;50.644;17.984;2023-12-14T03:29:55;46.50;;;21.00;;
69588;SDS011;56792;50.644;17.984;2023-12-14T03:32:26;46.00;;;20.50;;
69588;SDS011;56792;50.644;17.984;2023-12-14T03:34:57;46.00;;;19.70;;
69588;SDS011;56792;50.644;17.984;2023-12-14T03:37:28;48.30;;;20.80;;
69588;SDS011;56792;50.644;17.984;2023-12-14T03:39:59;51.10;;;23.30;;
69588;SDS011;56792;50.644;17.984;2023-12-14T03:42:30;49.10;;;22.60;;
69588;SDS011;56792;50.644;17.984;2023-12-14T03:45:01;44.50;;;19.70;;
69588;SDS011;56792;50.644;17.984;2023-12-14T03:47:33;38.30;;;17.40;;
69588;SDS011;56792;50.644;17.984;2023-12-14T03:50:05;40.70;;;17.50;;
69588;SDS011;56792;50.644;17.984;2023-12-14T03:52:39;37.00;;;17.80;;
69588;SDS011;56792;50.644;17.984;2023-12-14T03:55:11;40.60;;;17.20;;
69588;SDS011;56792;50.644;17.984;2023-12-14T03:57:43;36.10;;;16.30;;
69588;SDS011;56792;50.644;17.984;2023-12-14T04:00:15;45.70;;;18.50;;
69588;SDS011;56792;50.644;17.984;2023-12-14T04:02:47;41.20;;;17.90;;
69588;SDS011;56792;50.644;17.984;2023-12-14T04:05:18;43.40;;;18.30;;
69588;SDS011;56792;50.644;17.984;2023-12-14T04:07:49;48.00;;;19.40;;
69588;SDS011;56792;50.644;17.984;2023-12-14T04:10:20;52.10;;;20.80;;
69588;SDS011;56792;50.644;17.984;2023-12-14T04:12:51;47.90;;;19.50;;
69588;SDS011;56792;50.644;17.984;2023-12-14T04:15:22;46.50;;;19.10;;
69588;SDS011;56792;50.644;17.984;2023-12-14T04:17:53;53.70;;;20.80;;
69588;SDS011;56792;50.644;17.984;2023-12-14T04:20:24;49.20;;;20.50;;
69588;SDS011;56792;50.644;17.984;2023-12-14T04:22:56;42.70;;;17.80;;
69588;SDS011;56792;50.644;17.984;2023-12-14T04:25:27;50.80;;;18.70;;
69588;SDS011;56792;50.644;17.984;2023-12-14T04:27:58;50.10;;;19.60;;
69588;SDS011;56792;50.644;17.984;2023-12-14T04:30:29;53.70;;;20.80;;
69588;SDS011;56792;50.644;17.984;2023-12-14T04:33:00;53.00;;;19.10;;
69588;SDS011;56792;50.644;17.984;2023-12-14T04:35:31;46.00;;;19.20;;
69588;SDS011;56792;50.644;17.984;2023-12-14T04:38:04;46.20;;;20.20;;
69588;SDS011;56792;50.644;17.984;2023-12-14T04:40:35;51.40;;;18.90;;
69588;SDS011;56792;50.644;17.984;2023-12-14T04:43:06;50.40;;;19.70;;
69588;SDS011;56792;50.644;17.984;2023-12-14T04:45:37;47.90;;;20.30;;
69588;SDS011;56792;50.644;17.984;2023-12-14T04:48:08;46.80;;;19.00;;
69588;SDS011;56792;50.644;17.984;2023-12-14T04:50:39;56.40;;;20.30;;
69588;SDS011;56792;50.644;17.984;2023-12-14T04:53:10;51.30;;;19.80;;
69588;SDS011;56792;50.644;17.984;2023-12-14T04:55:41;51.10;;;19.60;;
69588;SDS011;56792;50.644;17.984;2023-12-14T04:58:12;55.90;;;20.80;;
69588;SDS011;56792;50.644;17.984;2023-12-14T05:00:43;57.80;;;20.70;;
69588;SDS011;56792;50.644;17.984;2023-12-14T05:03:14;51.20;;;20.60;;
69588;SDS011;56792;50.644;17.984;2023-12-14T05:05:45;57.70;;;22.00;;
69588;SDS011;56792;50.644;17.984;2023-12-14T05:08:17;56.90;;;21.60;;
69588;SDS011;56792;50.644;17.984;2023-12-14T05:10:48;53.50;;;20.00;;
69588;SDS011;56792;50.644;17.984;2023-12-14T05:13:19;54.90;;;21.00;;
69588;SDS011;56792;50.644;17.984;2023-12-14T05:15:50;52.40;;;20.20;;
69588;SDS011;56792;50.644;17.984;2023-12-14T05:18:21;50.20;;;19.40;;
69588;SDS011;56792;50.644;17.984;2023-12-14T05:20:52;61.50;;;24.30;;
69588;SDS011;56792;50.644;17.984;2023-12-14T05:23:24;62.70;;;23.20;;
69588;SDS011;56792;50.644;17.984;2023-12-14T05:25:55;58.20;;;23.20;;
69588;SDS011;56792;50.644;17.984;2023-12-14T05:28:26;67.30;;;25.00;;
69588;SDS011;56792;50.644;17.984;2023-12-14T05:30:57;67.10;;;23.00;;
69588;SDS011;56792;50.644;17.984;2023-12-14T05:33:28;60.50;;;22.90;;
69588;SDS011;56792;50.644;17.984;2023-12-14T05:35:59;57.90;;;21.40;;
69588;SDS011;56792;50.644;17.984;2023-12-14T05:38:31;61.20;;;21.90;;
69588;SDS011;56792;50.644;17.984;2023-12-14T05:41:02;53.60;;;20.70;;
69588;SDS011;56792;50.644;17.984;2023-12-14T05:43:33;51.80;;;19.80;;
69588;SDS011;56792;50.644;17.984;2023-12-14T05:46:05;53.90;;;19.80;;
69588;SDS011;56792;50.644;17.984;2023-12-14T05:48:36;52.80;;;20.60;;
69588;SDS011;56792;50.644;17.984;2023-12-14T05:51:08;49.30;;;19.30;;
69588;SDS011;56792;50.644;17.984;2023-12-14T05:53:39;60.40;;;21.20;;
69588;SDS011;56792;50.644;17.984;2023-12-14T05:56:10;57.60;;;20.40;;
69588;SDS011;56792;50.644;17.984;2023-12-14T05:58:42;52.00;;;19.60;;
69588;SDS011;56792;50.644;17.984;2023-12-14T06:01:13;60.00;;;21.60;;
69588;SDS011;56792;50.644;17.984;2023-12-14T06:03:45;52.30;;;19.30;;
69588;SDS011;56792;50.644;17.984;2023-12-14T06:06:17;51.30;;;20.40;;
69588;SDS011;56792;50.644;17.984;2023-12-14T06:08:48;60.50;;;20.70;;
69588;SDS011;56792;50.644;17.984;2023-12-14T06:11:19;57.90;;;22.60;;
69588;SDS011;56792;50.644;17.984;2023-12-14T06:13:50;59.40;;;20.80;;
69588;SDS011;56792;50.644;17.984;2023-12-14T06:16:21;63.60;;;21.80;;
69588;SDS011;56792;50.644;17.984;2023-12-14T06:18:52;63.60;;;22.10;;
69588;SDS011;56792;50.644;17.984;2023-12-14T06:21:23;63.70;;;22.80;;
69588;SDS011;56792;50.644;17.984;2023-12-14T06:23:56;64.90;;;23.10;;
69588;SDS011;56792;50.644;17.984;2023-12-14T06:26:28;55.70;;;20.90;;
69588;SDS011;56792;50.644;17.984;2023-12-14T06:28:59;59.40;;;21.80;;
69588;SDS011;56792;50.644;17.984;2023-12-14T06:31:30;59.10;;;22.50;;
69588;SDS011;56792;50.644;17.984;2023-12-14T06:34:01;58.20;;;21.10;;
69588;SDS011;56792;50.644;17.984;2023-12-14T06:36:32;57.00;;;20.50;;
69588;SDS011;56792;50.644;17.984;2023-12-14T06:39:03;58.70;;;20.30;;
69588;SDS011;56792;50.644;17.984;2023-12-14T06:41:34;52.50;;;18.80;;
69588;SDS011;56792;50.644;17.984;2023-12-14T06:44:06;54.90;;;21.10;;
69588;SDS011;56792;50.644;17.984;2023-12-14T06:46:37;64.30;;;23.20;;
69588;SDS011;56792;50.644;17.984;2023-12-14T06:49:08;57.40;;;21.90;;
69588;SDS011;56792;50.644;17.984;2023-12-14T06:51:39;60.70;;;22.30;;
69588;SDS011;56792;50.644;17.984;2023-12-14T06:54:10;56.90;;;21.20;;
69588;SDS011;56792;50.644;17.984;2023-12-14T06:56:41;53.90;;;19.80;;
69588;SDS011;56792;50.644;17.984;2023-12-14T06:59:12;54.10;;;19.70;;
69588;SDS011;56792;50.644;17.984;2023-12-14T07:01:44;54.20;;;20.60;;
69588;SDS011;56792;50.644;17.984;2023-12-14T07:04:15;57.10;;;20.20;;
69588;SDS011;56792;50.644;17.984;2023-12-14T07:06:52;53.50;;;20.10;;
69588;SDS011;56792;50.644;17.984;2023-12-14T07:09:23;53.10;;;20.70;;
69588;SDS011;56792;50.644;17.984;2023-12-14T07:11:54;56.00;;;20.50;;
69588;SDS011;56792;50.644;17.984;2023-12-14T07:14:26;60.40;;;22.80;;
69588;SDS011;56792;50.644;17.984;2023-12-14T07:16:57;59.00;;;21.10;;
69588;SDS011;56792;50.644;17.984;2023-12-14T07:19:28;57.60;;;19.70;;
69588;SDS011;56792;50.644;17.984;2023-12-14T07:22:00;57.00;;;21.80;;
69588;SDS011;56792;50.644;17.984;2023-12-14T07:24:31;51.50;;;20.60;;
69588;SDS011;56792;50.644;17.984;2023-12-14T07:27:02;55.30;;;21.90;;
69588;SDS011;56792;50.644;17.984;2023-12-14T07:29:33;58.50;;;21.40;;
69588;SDS011;56792;50.644;17.984;2023-12-14T07:32:05;55.10;;;21.30;;
69588;SDS011;56792;50.644;17.984;2023-12-14T07:34:36;57.40;;;23.00;;
69588;SDS011;56792;50.644;17.984;2023-12-14T07:37:07;53.40;;;20.10;;
69588;SDS011;56792;50.644;17.984;2023-12-14T07:39:39;57.20;;;22.20;;
69588;SDS011;56792;50.644;17.984;2023-12-14T07:42:10;59.90;;;23.70;;
69588;SDS011;56792;50.644;17.984;2023-12-14T07:44:47;59.20;;;23.70;;
69588;SDS011;56792;50.644;17.984;2023-12-14T07:47:18;54.30;;;21.30;;
69588;SDS011;56792;50.644;17.984;2023-12-14T07:49:49;54.80;;;21.30;;
69588;SDS011;56792;50.644;17.984;2023-12-14T07:52:20;59.90;;;21.40;;
69588;SDS011;56792;50.644;17.984;2023-12-14T07:54:51;51.10;;;20.00;;
69588;SDS011;56792;50.644;17.984;2023-12-14T07:57:22;60.20;;;21.00;;
69588;SDS011;56792;50.644;17.984;2023-12-14T07:59:53;57.40;;;21.00;;
69588;SDS011;56792;50.644;17.984;2023-12-14T08:02:24;54.00;;;19.60;;
69588;SDS011;56792;50.644;17.984;2023-12-14T08:04:55;63.50;;;22.20;;
69588;SDS011;56792;50.644;17.984;2023-12-14T08:07:26;65.40;;;22.60;;
69588;SDS011;56792;50.644;17.984;2023-12-14T08:09:57;56.10;;;19.70;;
69588;SDS011;56792;50.644;17.984;2023-12-14T08:12:29;55.60;;;19.60;;
69588;SDS011;56792;50.644;17.984;2023-12-14T08:15:00;63.10;;;20.50;;
69588;SDS011;56792;50.644;17.984;2023-12-14T08:17:32;61.80;;;19.90;;
69588;SDS011;56792;50.644;17.984;2023-12-14T08:20:03;61.60;;;20.70;;
69588;SDS011;56792;50.644;17.984;2023-12-14T08:22:37;66.20;;;20.40;;
69588;SDS011;56792;50.644;17.984;2023-12-14T08:25:13;67.50;;;20.60;;
69588;SDS011;56792;50.644;17.984;2023-12-14T08:27:45;64.00;;;20.40;;
69588;SDS011;56792;50.644;17.984;2023-12-14T08:30:16;59.20;;;20.80;;
69588;SDS011;56792;50.644;17.984;2023-12-14T08:32:47;67.00;;;22.10;;
69588;SDS011;56792;50.644;17.984;2023-12-14T08:35:18;73.00;;;22.90;;
69588;SDS011;56792;50.644;17.984;2023-12-14T08:37:49;75.50;;;23.10;;
69588;SDS011;56792;50.644;17.984;2023-12-14T08:40:20;59.00;;;19.30;;
69588;SDS011;56792;50.644;17.984;2023-12-14T08:42:51;65.10;;;21.00;;
69588;SDS011;56792;50.644;17.984;2023-12-14T08:45:22;71.60;;;21.60;;
69588;SDS011;56792;50.644;17.984;2023-12-14T08:47:53;67.90;;;20.90;;
69588;SDS011;56792;50.644;17.984;2023-12-14T08:50:25;56.70;;;19.20;;
69588;SDS011;56792;50.644;17.984;2023-12-14T08:52:56;56.00;;;17.80;;
69588;SDS011;56792;50.644;17.984;2023-12-14T08:55:27;63.20;;;21.40;;
69588;SDS011;56792;50.644;17.984;2023-12-14T08:57:58;65.30;;;20.40;;
69588;SDS011;56792;50.644;17.984;2023-12-14T09:00:29;62.50;;;22.30;;
69588;SDS011;56792;50.644;17.984;2023-12-14T09:03:00;62.40;;;20.90;;
69588;SDS011;56792;50.644;17.984;2023-12-14T09:05:31;60.70;;;20.20;;
69588;SDS011;56792;50.644;17.984;2023-12-14T09:08:03;64.50;;;22.10;;
69588;SDS011;56792;50.644;17.984;2023-12-14T09:10:34;56.30;;;19.40;;
69588;SDS011;56792;50.644;17.984;2023-12-14T09:13:05;56.70;;;19.80;;
69588;SDS011;56792;50.644;17.984;2023-12-14T09:15:37;58.20;;;20.20;;
69588;SDS011;56792;50.644;17.984;2023-12-14T09:18:08;54.00;;;20.40;;
69588;SDS011;56792;50.644;17.984;2023-12-14T09:20:39;57.70;;;20.10;;
69588;SDS011;56792;50.644;17.984;2023-12-14T09:23:10;64.60;;;21.70;;
69588;SDS011;56792;50.644;17.984;2023-12-14T09:25:42;50.90;;;19.80;;
69588;SDS011;56792;50.644;17.984;2023-12-14T09:28:13;57.90;;;20.40;;
69588;SDS011;56792;50.644;17.984;2023-12-14T09:30:44;60.70;;;22.30;;
69588;SDS011;56792;50.644;17.984;2023-12-14T09:33:15;60.30;;;21.90;;
69588;SDS011;56792;50.644;17.984;2023-12-14T09:35:46;54.10;;;20.00;;
69588;SDS011;56792;50.644;17.984;2023-12-14T09:38:17;54.30;;;20.70;;
69588;SDS011;56792;50.644;17.984;2023-12-14T09:40:48;64.40;;;19.90;;
69588;SDS011;56792;50.644;17.984;2023-12-14T09:43:19;59.90;;;21.40;;
69588;SDS011;56792;50.644;17.984;2023-12-14T09:45:52;60.10;;;21.20;;
69588;SDS011;56792;50.644;17.984;2023-12-14T09:48:24;60.80;;;21.20;;
69588;SDS011;56792;50.644;17.984;2023-12-14T09:50:57;61.10;;;21.20;;
69588;SDS011;56792;50.644;17.984;2023-12-14T09:53:28;60.00;;;21.70;;
69588;SDS011;56792;50.644;17.984;2023-12-14T09:55:59;63.80;;;20.50;;
69588;SDS011;56792;50.644;17.984;2023-12-14T09:58:32;57.70;;;19.50;;
69588;SDS011;56792;50.644;17.984;2023-12-14T10:01:11;59.60;;;21.70;;
69588;SDS011;56792;50.644;17.984;2023-12-14T10:04:08;57.60;;;20.10;;
69588;SDS011;56792;50.644;17.984;2023-12-14T10:06:41;53.30;;;19.70;;
69588;SDS011;56792;50.644;17.984;2023-12-14T10:09:13;63.80;;;21.40;;
69588;SDS011;56792;50.644;17.984;2023-12-14T10:12:03;55.90;;;19.50;;
69588;SDS011;56792;50.644;17.984;2023-12-14T10:14:37;61.70;;;22.50;;
69588;SDS011;56792;50.644;17.984;2023-12-14T10:17:19;56.40;;;20.50;;
69588;SDS011;56792;50.644;17.984;2023-12-14T10:19:56;54.10;;;19.80;;
69588;SDS011;56792;50.644;17.984;2023-12-14T10:22:31;60.50;;;19.90;;
69588;SDS011;56792;50.644;17.984;2023-12-14T10:25:03;54.00;;;20.60;;
69588;SDS011;56792;50.644;17.984;2023-12-14T10:27:39;56.40;;;20.10;;
69588;SDS011;56792;50.644;17.984;2023-12-14T10:30:12;56.30;;;21.50;;
69588;SDS011;56792;50.644;17.984;2023-12-14T10:32:44;55.40;;;21.50;;
69588;SDS011;56792;50.644;17.984;2023-12-14T10:35:17;71.20;;;24.00;;
69588;SDS011;56792;50.644;17.984;2023-12-14T10:37:52;61.90;;;22.30;;
69588;SDS011;56792;50.644;17.984;2023-12-14T10:40:25;63.80;;;22.20;;
69588;SDS011;56792;50.644;17.984;2023-12-14T10:42:59;58.90;;;21.00;;
69588;SDS011;56792;50.644;17.984;2023-12-14T10:45:33;63.70;;;22.00;;
69588;SDS011;56792;50.644;17.984;2023-12-14T10:48:05;56.10;;;20.50;;
69588;SDS011;56792;50.644;17.984;2023-12-14T10:50:37;52.80;;;19.60;;
69588;SDS011;56792;50.644;17.984;2023-12-14T10:53:11;64.10;;;21.70;;
69588;SDS011;56792;50.644;17.984;2023-12-14T10:55:44;54.00;;;18.40;;
69588;SDS011;56792;50.644;17.984;2023-12-14T10:58:19;61.50;;;21.40;;
69588;SDS011;56792;50.644;17.984;2023-12-14T11:01:00;55.50;;;20.70;;
69588;SDS011;56792;50.644;17.984;2023-12-14T11:03:35;66.20;;;22.80;;
69588;SDS011;56792;50.644;17.984;2023-12-14T11:06:21;59.90;;;22.20;;
69588;SDS011;56792;50.644;17.984;2023-12-14T11:09:00;61.40;;;21.70;;
69588;SDS011;56792;50.644;17.984;2023-12-14T11:11:41;54.10;;;20.40;;
69588;SDS011;56792;50.644;17.984;2023-12-14T11:14:25;50.00;;;19.30;;
69588;SDS011;56792;50.644;17.984;2023-12-14T11:17:05;68.70;;;24.00;;
69588;SDS011;56792;50.644;17.984;2023-12-14T11:19:40;86.90;;;30.80;;
69588;SDS011;56792;50.644;17.984;2023-12-14T11:22:13;66.80;;;24.50;;
69588;SDS011;56792;50.644;17.984;2023-12-14T11:24:56;61.70;;;22.00;;
69588;SDS011;56792;50.644;17.984;2023-12-14T11:27:31;53.80;;;20.10;;
69588;SDS011;56792;50.644;17.984;2023-12-14T11:30:13;77.70;;;28.40;;
69588;SDS011;56792;50.644;17.984;2023-12-14T11:32:46;72.40;;;28.40;;
69588;SDS011;56792;50.644;17.984;2023-12-14T11:35:17;62.80;;;23.80;;
69588;SDS011;56792;50.644;17.984;2023-12-14T11:37:48;59.90;;;24.90;;
69588;SDS011;56792;50.644;17.984;2023-12-14T11:40:19;59.70;;;26.40;;
69588;SDS011;56792;50.644;17.984;2023-12-14T11:42:59;51.20;;;20.70;;
69588;SDS011;56792;50.644;17.984;2023-12-14T11:45:35;41.70;;;16.80;;
69588;SDS011;56792;50.644;17.984;2023-12-14T11:48:08;46.10;;;18.50;;
69588;SDS011;56792;50.644;17.984;2023-12-14T11:50:41;50.60;;;19.50;;
69588;SDS011;56792;50.644;17.984;2023-12-14T11:53:12;53.60;;;19.10;;
69588;SDS011;56792;50.644;17.984;2023-12-14T11:55:44;45.60;;;18.10;;
69588;SDS011;56792;50.644;17.984;2023-12-14T11:58:17;49.20;;;18.80;;
69588;SDS011;56792;50.644;17.984;2023-12-14T12:00:48;46.10;;;18.60;;
69588;SDS011;56792;50.644;17.984;2023-12-14T12:03:20;56.50;;;19.30;;
69588;SDS011;56792;50.644;17.984;2023-12-14T12:05:52;53.20;;;19.40;;
69588;SDS011;56792;50.644;17.984;2023-12-14T12:08:23;51.10;;;18.80;;
69588;SDS011;56792;50.644;17.984;2023-12-14T12:10:55;50.20;;;18.40;;
69588;SDS011;56792;50.644;17.984;2023-12-14T12:13:27;55.10;;;20.20;;
69588;SDS011;56792;50.644;17.984;2023-12-14T12:15:59;49.60;;;19.90;;
69588;SDS011;56792;50.644;17.984;2023-12-14T12:18:30;57.00;;;21.40;;
69588;SDS011;56792;50.644;17.984;2023-12-14T12:21:01;58.30;;;21.80;;
69588;SDS011;56792;50.644;17.984;2023-12-14T12:23:34;55.10;;;22.20;;
69588;SDS011;56792;50.644;17.984;2023-12-14T12:26:05;55.60;;;23.10;;
69588;SDS011;56792;50.644;17.984;2023-12-14T12:28:36;58.60;;;23.20;;
69588;SDS011;56792;50.644;17.984;2023-12-14T12:31:07;53.00;;;20.30;;
69588;SDS011;56792;50.644;17.984;2023-12-14T12:33:39;53.90;;;20.70;;
69588;SDS011;56792;50.644;17.984;2023-12-14T12:36:10;62.90;;;22.80;;
69588;SDS011;56792;50.644;17.984;2023-12-14T12:38:41;55.60;;;20.50;;
69588;SDS011;56792;50.644;17.984;2023-12-14T12:41:12;59.80;;;20.90;;
69588;SDS011;56792;50.644;17.984;2023-12-14T12:43:43;52.50;;;19.90;;
69588;SDS011;56792;50.644;17.984;2023-12-14T12:46:14;64.70;;;24.30;;
69588;SDS011;56792;50.644;17.984;2023-12-14T12:48:46;62.60;;;24.20;;
69588;SDS011;56792;50.644;17.984;2023-12-14T12:51:19;57.70;;;23.60;;
69588;SDS011;56792;50.644;17.984;2023-12-14T12:53:50;64.50;;;23.40;;
69588;SDS011;56792;50.644;17.984;2023-12-14T12:56:21;62.10;;;23.30;;
69588;SDS011;56792;50.644;17.984;2023-12-14T12:58:53;55.10;;;20.60;;
69588;SDS011;56792;50.644;17.984;2023-12-14T13:01:24;52.80;;;20.80;;
69588;SDS011;56792;50.644;17.984;2023-12-14T13:03:56;53.70;;;19.80;;
69588;SDS011;56792;50.644;17.984;2023-12-14T13:06:27;53.90;;;21.50;;
69588;SDS011;56792;50.644;17.984;2023-12-14T13:08:58;50.00;;;19.90;;
69588;SDS011;56792;50.644;17.984;2023-12-14T13:11:29;40.80;;;17.10;;
69588;SDS011;56792;50.644;17.984;2023-12-14T13:14:00;51.20;;;20.90;;
69588;SDS011;56792;50.644;17.984;2023-12-14T13:16:36;51.50;;;21.70;;
69588;SDS011;56792;50.644;17.984;2023-12-14T13:19:07;44.40;;;19.50;;
69588;SDS011;56792;50.644;17.984;2023-12-14T13:21:39;51.60;;;20.60;;
69588;SDS011;56792;50.644;17.984;2023-12-14T13:24:10;51.90;;;21.00;;
69588;SDS011;56792;50.644;17.984;2023-12-14T13:26:41;51.10;;;23.90;;
69588;SDS011;56792;50.644;17.984;2023-12-14T13:29:12;53.80;;;21.10;;
69588;SDS011;56792;50.644;17.984;2023-12-14T13:31:43;54.90;;;22.60;;
69588;SDS011;56792;50.644;17.984;2023-12-14T13:34:14;51.10;;;20.60;;
69588;SDS011;56792;50.644;17.984;2023-12-14T13:36:45;55.20;;;22.00;;
69588;SDS011;56792;50.644;17.984;2023-12-14T13:39:16;55.40;;;23.30;;
69588;SDS011;56792;50.644;17.984;2023-12-14T13:41:47;58.00;;;23.50;;
69588;SDS011;56792;50.644;17.984;2023-12-14T13:44:19;61.10;;;24.30;;
69588;SDS011;56792;50.644;17.984;2023-12-14T13:46:50;46.20;;;19.50;;
69588;SDS011;56792;50.644;17.984;2023-12-14T13:49:21;56.60;;;23.10;;
69588;SDS011;56792;50.644;17.984;2023-12-14T13:51:52;57.00;;;24.60;;
69588;SDS011;56792;50.644;17.984;2023-12-14T13:54:24;61.30;;;26.00;;
69588;SDS011;56792;50.644;17.984;2023-12-14T13:56:55;57.60;;;22.70;;
69588;SDS011;56792;50.644;17.984;2023-12-14T13:59:26;52.10;;;21.90;;
69588;SDS011;56792;50.644;17.984;2023-12-14T14:01:57;55.90;;;23.10;;
69588;SDS011;56792;50.644;17.984;2023-12-14T14:04:28;64.90;;;24.80;;
69588;SDS011;56792;50.644;17.984;2023-12-14T14:06:59;59.20;;;23.30;;
69588;SDS011;56792;50.644;17.984;2023-12-14T14:09:30;50.00;;;19.70;;
69588;SDS011;56792;50.644;17.984;2023-12-14T14:12:01;47.40;;;21.40;;
69588;SDS011;56792;50.644;17.984;2023-12-14T14:14:32;49.90;;;21.20;;
69588;SDS011;56792;50.644;17.984;2023-12-14T14:17:03;46.90;;;21.80;;
69588;SDS011;56792;50.644;17.984;2023-12-14T14:19:35;47.60;;;22.40;;
69588;SDS011;56792;50.644;17.984;2023-12-14T14:22:06;50.60;;;22.90;;
69588;SDS011;56792;50.644;17.984;2023-12-14T14:24:37;52.50;;;21.90;;
69588;SDS011;56792;50.644;17.984;2023-12-14T14:27:08;49.20;;;21.30;;
69588;SDS011;56792;50.644;17.984;2023-12-14T14:29:39;49.90;;;21.60;;
69588;SDS011;56792;50.644;17.984;2023-12-14T14:32:10;39.60;;;19.20;;
69588;SDS011;56792;50.644;17.984;2023-12-14T14:34:42;46.40;;;20.10;;